createdAt,value
2018-07-13T00:01:44.578Z,11.77
2018-07-13T00:04:11.909Z,11.43
2018-07-13T00:06:39.824Z,10.43
2018-07-13T00:09:08.621Z,7.00
2018-07-13T00:11:36.112Z,12.33
2018-07-13T00:14:11.289Z,11.90
2018-07-13T00:16:38.639Z,10.00
2018-07-13T00:19:05.992Z,6.60
2018-07-13T00:21:33.577Z,9.33
2018-07-13T00:24:01.187Z,10.93
2018-07-13T00:26:28.410Z,10.63
2018-07-13T00:28:55.816Z,11.27
2018-07-13T00:31:23.097Z,10.30
2018-07-13T00:33:50.344Z,8.27
2018-07-13T00:36:17.600Z,7.90
2018-07-13T00:38:45.229Z,8.93
2018-07-13T00:41:12.466Z,12.90
2018-07-13T00:43:39.731Z,12.37
2018-07-13T00:46:07.141Z,9.77
2018-07-13T00:48:34.711Z,10.13
2018-07-13T00:51:02.014Z,12.73
2018-07-13T00:53:29.285Z,11.30
2018-07-13T00:55:56.765Z,11.60
2018-07-13T00:58:24.029Z,9.33
2018-07-13T01:00:51.292Z,10.40
2018-07-13T01:03:18.593Z,9.70
2018-07-13T01:05:46.282Z,8.87
2018-07-13T01:08:13.677Z,13.37
2018-07-13T01:10:40.918Z,7.93
2018-07-13T01:13:08.411Z,11.30
2018-07-13T01:15:35.776Z,13.47
2018-07-13T01:18:03.226Z,9.53
2018-07-13T01:20:30.444Z,10.23
2018-07-13T01:22:57.681Z,13.33
2018-07-13T01:25:24.962Z,11.40
2018-07-13T01:27:52.268Z,12.07
2018-07-13T01:30:19.541Z,9.27
2018-07-13T01:32:46.852Z,14.07
2018-07-13T01:35:14.325Z,8.63
2018-07-13T01:37:41.678Z,13.47
2018-07-13T01:40:09.363Z,13.43
2018-07-13T01:42:36.637Z,11.40
2018-07-13T01:45:04.389Z,10.87
2018-07-13T01:47:32.015Z,10.23
2018-07-13T01:49:59.294Z,8.90
2018-07-13T01:52:26.665Z,11.47
2018-07-13T01:54:53.893Z,11.27
2018-07-13T01:57:21.201Z,7.17
2018-07-13T01:59:48.853Z,13.20
2018-07-13T02:02:16.205Z,8.57
2018-07-13T02:04:43.501Z,12.33
2018-07-13T02:07:10.747Z,11.17
2018-07-13T02:09:38.028Z,15.07
2018-07-13T02:12:05.635Z,12.40
2018-07-13T02:14:33.359Z,10.67
2018-07-13T02:17:00.698Z,17.23
2018-07-13T02:19:28.019Z,8.13
2018-07-13T02:21:55.443Z,14.73
2018-07-13T02:24:22.947Z,10.70
2018-07-13T02:26:50.193Z,10.90
2018-07-13T02:29:17.436Z,14.40
2018-07-13T02:31:44.683Z,11.30
2018-07-13T02:34:11.938Z,10.10
2018-07-13T11:11:55.327Z,7.10
2018-07-13T11:14:22.916Z,7.67
2018-07-13T11:16:50.167Z,7.47
2018-07-13T11:19:17.416Z,5.73
2018-07-13T11:21:45.233Z,10.53
2018-07-13T11:24:12.487Z,6.53
2018-07-13T11:26:39.922Z,8.70
2018-07-13T11:29:07.115Z,7.90
2018-07-13T11:31:34.334Z,5.43
2018-07-13T11:34:01.629Z,7.37
2018-07-13T11:36:28.825Z,7.83
2018-07-13T11:38:56.054Z,6.07
2018-07-13T11:41:23.281Z,6.03
2018-07-13T11:43:50.518Z,7.10
2018-07-13T11:46:19.959Z,7.27
2018-07-13T11:48:47.294Z,7.27
2018-07-13T11:51:14.645Z,7.63
2018-07-13T11:53:42.650Z,8.73
2018-07-13T11:56:10.774Z,7.47
2018-07-13T11:58:38.025Z,6.20
2018-07-13T12:01:05.633Z,6.93
2018-07-13T12:03:32.939Z,6.63
2018-07-13T12:06:00.182Z,6.90
2018-07-13T12:08:27.438Z,7.93
2018-07-13T12:10:54.708Z,7.77
2018-07-13T12:13:21.955Z,6.17
2018-07-13T12:15:49.267Z,9.07
2018-07-13T12:18:16.634Z,10.90
2018-07-13T12:20:43.966Z,8.20
2018-07-13T12:23:11.235Z,8.17
2018-07-13T12:25:38.482Z,7.27
2018-07-13T12:28:05.740Z,8.73
2018-07-13T12:30:32.977Z,9.43
2018-07-13T12:33:00.357Z,7.77
2018-07-13T12:35:27.625Z,9.47
2018-07-13T12:37:54.889Z,5.90
2018-07-13T12:40:22.196Z,6.77
2018-07-13T12:42:49.571Z,6.27
2018-07-13T12:45:16.888Z,7.73
2018-07-13T12:47:44.344Z,5.63
2018-07-13T12:50:11.774Z,8.77
2018-07-13T12:52:39.014Z,18.57
2018-07-13T12:55:06.382Z,8.07
2018-07-13T12:57:34.697Z,5.57
2018-07-13T13:00:02.688Z,6.90
2018-07-13T13:02:30.968Z,6.03
2018-07-13T13:04:58.566Z,5.47
2018-07-13T13:07:26.081Z,7.07
2018-07-13T13:09:53.599Z,6.27
2018-07-13T13:12:21.179Z,6.20
2018-07-13T13:14:48.434Z,7.27
2018-07-13T13:17:16.365Z,5.67
2018-07-13T13:19:43.676Z,7.17
2018-07-13T13:22:11.297Z,10.00
2018-07-13T13:24:38.969Z,5.70
2018-07-13T13:27:06.254Z,5.10
2018-07-13T13:29:33.615Z,5.13
2018-07-13T13:32:01.399Z,7.73
2018-07-13T13:34:28.810Z,6.07
2018-07-13T13:36:57.276Z,5.23
2018-07-13T13:39:25.093Z,7.07
2018-07-13T13:41:52.464Z,6.03
2018-07-13T13:44:20.689Z,6.20
2018-07-13T13:46:48.003Z,6.10
2018-07-13T13:49:15.419Z,5.13
2018-07-13T13:51:42.814Z,6.37
2018-07-13T13:54:10.127Z,6.20
2018-07-13T13:56:37.596Z,6.17
2018-07-13T13:59:05.354Z,5.83
2018-07-13T14:01:32.813Z,6.53
2018-07-13T14:04:00.152Z,5.47
2018-07-13T14:06:27.593Z,6.57
2018-07-13T14:08:55.254Z,6.10
2018-07-13T14:11:22.722Z,6.03
2018-07-13T14:13:50.468Z,6.13
2018-07-13T14:16:18.466Z,7.07
2018-07-13T14:18:45.762Z,6.00
2018-07-13T14:21:13.057Z,5.17
2018-07-13T14:23:41.125Z,6.80
2018-07-13T14:26:09.625Z,4.83
2018-07-13T14:28:37.193Z,9.10
2018-07-13T14:31:04.977Z,5.47
2018-07-13T14:33:32.282Z,4.67
2018-07-13T14:35:59.762Z,6.17
2018-07-13T14:38:27.200Z,8.30
2018-07-13T14:40:54.942Z,6.47
2018-07-13T14:43:22.375Z,5.87
2018-07-13T14:45:49.781Z,4.33
2018-07-13T14:48:17.139Z,7.90
2018-07-13T14:50:44.624Z,5.20
2018-07-13T14:53:12.019Z,5.47
2018-07-13T14:55:39.459Z,6.13
2018-07-13T14:58:06.711Z,8.43
2018-07-13T15:00:33.981Z,5.60
2018-07-13T15:03:01.266Z,7.70
2018-07-13T15:05:28.668Z,5.70
2018-07-13T15:07:55.995Z,6.80
2018-07-13T15:10:23.356Z,4.13
2018-07-13T15:12:50.689Z,6.70
2018-07-13T15:15:18.125Z,5.00
2018-07-13T15:17:45.659Z,5.87
2018-07-13T15:20:12.933Z,5.33
2018-07-13T15:22:40.332Z,7.20
2018-07-13T15:25:07.613Z,6.07
2018-07-13T15:27:34.942Z,5.80
2018-07-13T15:30:02.333Z,4.57
2018-07-13T15:32:29.574Z,6.10
2018-07-13T15:34:56.865Z,5.03
2018-07-13T15:37:24.232Z,6.73
2018-07-13T15:39:51.490Z,5.90
2018-07-13T15:42:18.755Z,7.67
2018-07-13T15:44:45.984Z,4.20
2018-07-13T15:47:13.910Z,6.23
2018-07-13T15:49:41.142Z,6.27
2018-07-13T15:52:08.399Z,4.37
2018-07-13T15:54:35.631Z,7.03
2018-07-13T15:57:02.902Z,4.97
2018-07-13T15:59:30.128Z,6.93
2018-07-13T16:01:57.365Z,4.47
2018-07-13T16:04:24.970Z,5.17
2018-07-13T16:06:52.334Z,5.40
2018-07-13T16:09:19.923Z,6.03
2018-07-13T16:11:47.659Z,4.73
2018-07-13T16:14:15.022Z,5.70
2018-07-13T16:16:42.360Z,6.77
2018-07-13T16:19:09.676Z,4.67
2018-07-13T16:21:36.986Z,6.80
2018-07-13T16:24:04.241Z,6.30
2018-07-13T16:26:31.537Z,5.23
2018-07-13T16:28:58.766Z,7.60
2018-07-13T16:31:26.065Z,6.53
2018-07-13T16:33:53.283Z,4.07
2018-07-13T16:36:20.597Z,6.37
2018-07-13T16:38:47.868Z,4.60
2018-07-13T16:41:15.202Z,5.93
2018-07-13T16:43:42.466Z,7.93
2018-07-13T16:46:09.760Z,5.63
2018-07-13T16:48:36.989Z,4.70
2018-07-13T16:51:04.236Z,4.70
2018-07-13T16:53:31.479Z,5.40
2018-07-13T16:55:58.677Z,4.97
2018-07-13T16:58:25.974Z,4.70
2018-07-13T17:00:53.277Z,4.27
2018-07-13T17:03:20.584Z,6.03
2018-07-13T17:05:48.174Z,4.93
2018-07-13T17:08:15.751Z,7.03
2018-07-13T17:10:43.136Z,6.80
2018-07-13T17:13:10.399Z,4.60
2018-07-13T17:15:37.611Z,4.97
2018-07-13T17:18:05.019Z,5.63
2018-07-13T17:20:32.466Z,4.83
2018-07-13T17:22:59.651Z,6.23
2018-07-13T17:25:26.917Z,6.40
2018-07-13T17:27:54.265Z,6.27
2018-07-13T17:30:21.560Z,7.03
2018-07-13T17:32:49.644Z,5.67
2018-07-13T17:35:16.948Z,4.40
2018-07-13T17:37:44.335Z,5.03
2018-07-13T17:40:11.663Z,4.43
2018-07-13T17:42:39.157Z,6.10
2018-07-13T17:45:06.536Z,4.80
2018-07-13T17:47:33.861Z,4.47
2018-07-13T17:50:01.199Z,5.70
2018-07-13T17:52:28.449Z,3.97
2018-07-13T17:54:55.755Z,6.40
2018-07-13T17:57:22.993Z,4.90
2018-07-13T17:59:50.316Z,4.93
2018-07-13T18:02:17.575Z,7.43
2018-07-13T18:04:44.818Z,5.00
2018-07-13T18:07:12.170Z,8.17
2018-07-13T18:09:39.540Z,4.73
2018-07-13T18:12:06.809Z,6.17
2018-07-13T18:14:34.064Z,4.37
2018-07-13T18:17:01.366Z,5.53
2018-07-13T18:22:02.512Z,4.37
2018-07-13T18:24:29.784Z,5.37
2018-07-13T18:26:57.138Z,4.27
2018-07-13T18:29:24.413Z,6.37
2018-07-13T18:31:51.651Z,5.20
2018-07-13T18:34:18.896Z,4.73
2018-07-13T18:36:46.112Z,4.23
2018-07-13T18:39:13.360Z,8.20
2018-07-13T18:41:40.738Z,5.33
2018-07-13T18:44:08.034Z,4.63
2018-07-13T18:46:35.262Z,6.73
2018-07-13T18:49:02.507Z,5.43
2018-07-13T18:51:29.770Z,4.90
2018-07-13T18:53:57.038Z,4.73
2018-07-13T18:56:24.289Z,4.87
2018-07-13T18:58:51.602Z,3.73
2018-07-13T19:01:18.878Z,4.63
2018-07-13T19:03:46.207Z,3.77
2018-07-13T19:06:13.464Z,4.33
2018-07-13T19:08:40.737Z,9.47
2018-07-13T19:11:08.117Z,4.87
2018-07-13T19:13:35.577Z,4.43
2018-07-13T19:16:02.829Z,4.00
2018-07-13T19:18:30.174Z,4.93
2018-07-13T19:20:57.464Z,5.87
2018-07-13T19:23:24.796Z,4.87
2018-07-13T19:25:52.157Z,6.03
2018-07-13T19:28:19.378Z,6.07
2018-07-13T19:30:46.801Z,6.93
2018-07-13T19:33:14.065Z,5.00
2018-07-13T19:35:41.336Z,8.23
2018-07-13T19:38:08.611Z,5.90
2018-07-13T19:40:35.913Z,6.17
2018-07-13T19:43:03.583Z,4.50
2018-07-13T19:45:30.980Z,5.70
2018-07-13T19:47:58.311Z,6.60
2018-07-13T19:50:25.757Z,5.43
2018-07-13T19:52:53.025Z,5.67
2018-07-13T19:55:20.338Z,6.53
2018-07-13T19:57:47.618Z,3.63
2018-07-13T20:00:15.349Z,3.83
2018-07-13T20:02:42.647Z,5.27
2018-07-13T20:05:09.920Z,4.37
2018-07-13T20:07:37.404Z,5.40
2018-07-13T20:10:04.650Z,4.30
2018-07-13T20:12:32.037Z,5.50
2018-07-13T20:14:59.887Z,4.77
2018-07-13T20:17:27.134Z,4.97
2018-07-13T20:19:54.365Z,6.27
2018-07-13T20:22:21.613Z,5.57
2018-07-13T20:24:48.902Z,4.57
2018-07-13T20:27:16.185Z,5.70
2018-07-13T20:29:43.378Z,6.10
2018-07-13T20:32:10.652Z,4.50
2018-07-13T20:34:38.008Z,3.70
2018-07-13T20:37:05.291Z,4.27
2018-07-13T20:39:32.657Z,5.07
2018-07-13T20:41:59.917Z,3.83
2018-07-13T20:44:27.156Z,5.70
2018-07-13T20:46:54.419Z,3.70
2018-07-13T20:49:22.437Z,3.97
2018-07-13T20:51:49.713Z,3.47
2018-07-13T20:54:17.045Z,4.40
2018-07-13T20:56:45.037Z,5.10
2018-07-13T20:59:12.331Z,5.43
2018-07-13T21:01:39.574Z,3.90
2018-07-13T21:04:07.002Z,4.83
2018-07-13T21:06:34.293Z,3.90
2018-07-13T21:09:01.596Z,7.10
2018-07-13T21:11:28.826Z,4.00
2018-07-13T21:13:56.093Z,5.50
2018-07-13T21:16:23.942Z,3.90
2018-07-13T21:18:51.202Z,3.10
2018-07-13T21:21:18.453Z,3.87
2018-07-13T21:23:45.827Z,3.43
2018-07-13T21:26:13.818Z,5.03
2018-07-13T21:28:41.137Z,4.10
2018-07-13T21:31:08.391Z,5.57
2018-07-13T21:33:35.940Z,5.53
2018-07-13T21:36:03.193Z,6.93
2018-07-13T21:38:30.506Z,3.87
2018-07-13T21:40:59.071Z,5.03
2018-07-13T21:43:26.491Z,3.37
2018-07-13T21:45:54.454Z,4.97
2018-07-13T21:48:21.734Z,6.03
2018-07-13T21:50:49.125Z,4.93
2018-07-13T21:53:17.045Z,7.70
2018-07-13T21:55:44.351Z,4.23
2018-07-13T21:58:12.012Z,4.53
2018-07-13T22:00:39.274Z,4.60
2018-07-13T22:03:06.623Z,4.13
2018-07-13T22:05:33.895Z,5.47
2018-07-13T22:08:01.153Z,4.57
2018-07-13T22:10:28.510Z,5.27
2018-07-13T22:12:55.769Z,6.60
2018-07-13T22:15:23.015Z,4.87
2018-07-13T22:17:50.256Z,5.47
2018-07-13T22:20:17.507Z,3.80
2018-07-13T22:22:44.790Z,4.57
2018-07-13T22:25:12.053Z,8.13
2018-07-13T22:27:39.292Z,4.30
2018-07-13T22:30:06.541Z,6.67
2018-07-13T22:32:33.995Z,6.27
2018-07-13T22:35:01.360Z,6.73
2018-07-13T22:37:28.652Z,7.20
2018-07-13T22:39:55.951Z,4.43
2018-07-13T22:42:23.202Z,6.97
2018-07-13T22:44:50.508Z,5.30
2018-07-13T22:47:17.833Z,6.07
2018-07-13T22:49:45.172Z,6.90
2018-07-13T22:52:12.396Z,5.63
2018-07-13T22:54:39.633Z,5.80
2018-07-13T22:57:06.928Z,5.13
2018-07-13T22:59:34.161Z,4.20
2018-07-13T23:02:01.395Z,4.80
2018-07-13T23:04:29.661Z,4.80
2018-07-13T23:06:56.913Z,6.80
2018-07-13T23:09:24.331Z,7.00
2018-07-13T23:11:51.815Z,4.83
2018-07-13T23:14:19.228Z,5.20
2018-07-13T23:16:46.526Z,4.43
2018-07-13T23:19:14.042Z,8.60
2018-07-13T23:21:41.452Z,4.37
2018-07-13T23:24:08.942Z,5.77
2018-07-13T23:26:36.281Z,5.63
2018-07-13T23:29:03.534Z,6.97
2018-07-13T23:31:31.017Z,5.63
2018-07-13T23:33:58.566Z,6.60
2018-07-13T23:36:25.873Z,6.03
2018-07-13T23:38:53.321Z,8.17
2018-07-13T23:41:20.566Z,6.07
2018-07-13T23:43:47.843Z,6.40
2018-07-13T23:46:15.368Z,9.40
2018-07-13T23:48:43.830Z,6.07
2018-07-13T23:51:12.214Z,9.67
2018-07-13T23:53:39.500Z,6.70
2018-07-13T23:56:06.818Z,6.43
2018-07-13T23:58:34.077Z,6.20
